sensor_id;sensor_type;location;lat;lon;timestamp;pressure;altitude;pressure_sealevel;temperature;humidity
64192;BME280;50497;50.720;-2.084;2023-05-03T00:01:45;102945.00;;;9.78;100.00
64192;BME280;50497;50.720;-2.084;2023-05-03T00:04:11;102945.91;;;9.76;100.00
64192;BME280;50497;50.720;-2.084;2023-05-03T00:06:39;102942.41;;;9.69;100.00
64192;BME280;50497;50.720;-2.084;2023-05-03T00:09:07;102937.94;;;9.71;100.00
64192;BME280;50497;50.720;-2.084;2023-05-03T00:11:35;102937.03;;;9.72;100.00
64192;BME280;50497;50.720;-2.084;2023-05-03T00:14:00;102938.00;;;9.65;100.00
64192;BME280;50497;50.720;-2.084;2023-05-03T00:16:29;102940.66;;;9.68;100.00
64192;BME280;50497;50.720;-2.084;2023-05-03T00:18:55;102936.31;;;9.55;100.00
64192;BME280;50497;50.720;-2.084;2023-05-03T00:21:24;102906.13;;;9.40;100.00
64192;BME280;50497;50.720;-2.084;2023-05-03T00:23:51;102941.66;;;9.55;100.00
64192;BME280;50497;50.720;-2.084;2023-05-03T00:26:16;102947.00;;;9.52;100.00
64192;BME280;50497;50.720;-2.084;2023-05-03T00:28:46;102942.56;;;9.48;100.00
64192;BME280;50497;50.720;-2.084;2023-05-03T00:31:11;102939.91;;;9.44;100.00
64192;BME280;50497;50.720;-2.084;2023-05-03T00:33:37;102911.59;;;9.25;100.00
64192;BME280;50497;50.720;-2.084;2023-05-03T00:36:10;102936.41;;;9.39;100.00
64192;BME280;50497;50.720;-2.084;2023-05-03T00:38:41;102944.41;;;9.41;100.00
64192;BME280;50497;50.720;-2.084;2023-05-03T00:41:08;102937.31;;;9.37;100.00
64192;BME280;50497;50.720;-2.084;2023-05-03T00:43:34;102917.84;;;9.18;100.00
64192;BME280;50497;50.720;-2.084;2023-05-03T00:46:05;102937.31;;;9.38;100.00
64192;BME280;50497;50.720;-2.084;2023-05-03T00:48:35;102941.81;;;9.33;100.00
64192;BME280;50497;50.720;-2.084;2023-05-03T00:51:05;102946.25;;;9.31;100.00
64192;BME280;50497;50.720;-2.084;2023-05-03T00:53:32;102946.28;;;9.28;100.00
64192;BME280;50497;50.720;-2.084;2023-05-03T00:56:02;102942.75;;;9.23;100.00
64192;BME280;50497;50.720;-2.084;2023-05-03T00:58:30;102937.47;;;9.17;100.00
64192;BME280;50497;50.720;-2.084;2023-05-03T01:00:57;102933.00;;;9.13;100.00
64192;BME280;50497;50.720;-2.084;2023-05-03T01:03:23;102920.59;;;9.05;100.00
64192;BME280;50497;50.720;-2.084;2023-05-03T01:06:09;102890.47;;;8.85;100.00
64192;BME280;50497;50.720;-2.084;2023-05-03T01:14:32;102920.63;;;8.99;100.00
64192;BME280;50497;50.720;-2.084;2023-05-03T01:17:06;102924.16;;;9.06;100.00
64192;BME280;50497;50.720;-2.084;2023-05-03T01:19:44;102918.88;;;8.98;100.00
64192;BME280;50497;50.720;-2.084;2023-05-03T01:22:36;102908.19;;;8.98;100.00
64192;BME280;50497;50.720;-2.084;2023-05-03T01:25:11;102915.31;;;8.95;100.00
64192;BME280;50497;50.720;-2.084;2023-05-03T01:27:41;102907.34;;;8.90;100.00
64192;BME280;50497;50.720;-2.084;2023-05-03T01:30:11;102895.84;;;8.82;100.00
64192;BME280;50497;50.720;-2.084;2023-05-03T01:38:09;102879.03;;;8.58;100.00
64192;BME280;50497;50.720;-2.084;2023-05-03T01:40:41;102874.63;;;8.49;100.00
64192;BME280;50497;50.720;-2.084;2023-05-03T01:43:09;102864.84;;;8.42;100.00
64192;BME280;50497;50.720;-2.084;2023-05-03T01:45:39;102869.31;;;8.37;100.00
64192;BME280;50497;50.720;-2.084;2023-05-03T01:48:17;102853.31;;;8.36;100.00
64192;BME280;50497;50.720;-2.084;2023-05-03T01:50:43;102856.00;;;8.36;100.00
64192;BME280;50497;50.720;-2.084;2023-05-03T01:53:11;102841.81;;;8.27;100.00
64192;BME280;50497;50.720;-2.084;2023-05-03T01:55:37;102810.75;;;8.05;100.00
64192;BME280;50497;50.720;-2.084;2023-05-03T01:58:06;102816.09;;;8.05;100.00
64192;BME280;50497;50.720;-2.084;2023-05-03T02:00:31;102790.34;;;8.01;100.00
64192;BME280;50497;50.720;-2.084;2023-05-03T02:02:57;102824.94;;;8.19;100.00
64192;BME280;50497;50.720;-2.084;2023-05-03T02:05:22;102816.06;;;8.16;100.00
64192;BME280;50497;50.720;-2.084;2023-05-03T02:07:52;102797.50;;;7.97;100.00
64192;BME280;50497;50.720;-2.084;2023-05-03T02:10:20;102829.41;;;8.11;100.00
64192;BME280;50497;50.720;-2.084;2023-05-03T02:12:46;102788.63;;;7.90;100.00
64192;BME280;50497;50.720;-2.084;2023-05-03T02:15:12;102824.09;;;8.08;100.00
64192;BME280;50497;50.720;-2.084;2023-05-03T02:17:39;102820.56;;;8.07;100.00
64192;BME280;50497;50.720;-2.084;2023-05-03T02:20:05;102817.91;;;8.03;100.00
64192;BME280;50497;50.720;-2.084;2023-05-03T02:22:34;102817.03;;;7.99;100.00
64192;BME280;50497;50.720;-2.084;2023-05-03T02:24:59;102817.03;;;7.94;100.00
64192;BME280;50497;50.720;-2.084;2023-05-03T02:27:25;102799.31;;;7.80;100.00
64192;BME280;50497;50.720;-2.084;2023-05-03T02:29:51;102805.50;;;7.85;100.00
64192;BME280;50497;50.720;-2.084;2023-05-03T02:32:17;102775.38;;;7.63;100.00
64192;BME280;50497;50.720;-2.084;2023-05-03T02:34:46;102804.63;;;7.72;100.00
64192;BME280;50497;50.720;-2.084;2023-05-03T02:37:13;102810.88;;;7.69;100.00
64192;BME280;50497;50.720;-2.084;2023-05-03T02:39:42;102778.03;;;7.50;100.00
64192;BME280;50497;50.720;-2.084;2023-05-03T02:42:11;102819.78;;;7.64;100.00
64192;BME280;50497;50.720;-2.084;2023-05-03T02:44:36;102815.34;;;7.55;100.00
64192;BME280;50497;50.720;-2.084;2023-05-03T02:47:05;102795.81;;;7.62;100.00
64192;BME280;50497;50.720;-2.084;2023-05-03T02:49:31;102796.69;;;7.59;100.00
64192;BME280;50497;50.720;-2.084;2023-05-03T02:51:57;102798.47;;;7.54;100.00
64192;BME280;50497;50.720;-2.084;2023-05-03T02:54:23;102794.94;;;7.51;100.00
64192;BME280;50497;50.720;-2.084;2023-05-03T02:56:48;102786.03;;;7.50;100.00
64192;BME280;50497;50.720;-2.084;2023-05-03T02:59:14;102746.13;;;7.30;100.00
64192;BME280;50497;50.720;-2.084;2023-05-03T03:01:39;102781.63;;;7.42;100.00
64192;BME280;50497;50.720;-2.084;2023-05-03T03:04:05;102783.41;;;7.49;100.00
64192;BME280;50497;50.720;-2.084;2023-05-03T03:06:31;102782.53;;;7.39;100.00
64192;BME280;50497;50.720;-2.084;2023-05-03T03:08:57;102778.97;;;7.37;100.00
64192;BME280;50497;50.720;-2.084;2023-05-03T03:11:22;102778.09;;;7.24;100.00
64192;BME280;50497;50.720;-2.084;2023-05-03T03:13:48;102777.19;;;7.30;100.00
64192;BME280;50497;50.720;-2.084;2023-05-03T03:16:14;102743.50;;;7.12;100.00
64192;BME280;50497;50.720;-2.084;2023-05-03T03:18:39;102744.41;;;7.08;100.00
64192;BME280;50497;50.720;-2.084;2023-05-03T03:21:12;102766.56;;;7.17;100.00
64192;BME280;50497;50.720;-2.084;2023-05-03T03:23:37;102761.25;;;7.14;100.00
64192;BME280;50497;50.720;-2.084;2023-05-03T03:26:06;102760.34;;;7.14;100.00
64192;BME280;50497;50.720;-2.084;2023-05-03T03:28:35;102752.38;;;7.09;100.00
64192;BME280;50497;50.720;-2.084;2023-05-03T03:31:01;102725.75;;;6.92;100.00
64192;BME280;50497;50.720;-2.084;2023-05-03T03:33:26;102744.41;;;7.08;100.00
64192;BME280;50497;50.720;-2.084;2023-05-03T03:35:52;102750.59;;;7.10;100.00
64192;BME280;50497;50.720;-2.084;2023-05-03T03:38:21;102744.41;;;7.06;100.00
64192;BME280;50497;50.720;-2.084;2023-05-03T03:40:54;102708.00;;;6.80;100.00
64192;BME280;50497;50.720;-2.084;2023-05-03T03:43:26;102736.41;;;7.00;100.00
64192;BME280;50497;50.720;-2.084;2023-05-03T03:45:54;102735.53;;;7.04;100.00
64192;BME280;50497;50.720;-2.084;2023-05-03T03:48:19;102730.22;;;7.06;100.00
64192;BME280;50497;50.720;-2.084;2023-05-03T03:50:45;102731.09;;;7.09;100.00
64192;BME280;50497;50.720;-2.084;2023-05-03T03:53:10;102724.84;;;7.16;100.00
64192;BME280;50497;50.720;-2.084;2023-05-03T03:55:37;102719.53;;;7.12;100.00
64192;BME280;50497;50.720;-2.084;2023-05-03T03:58:07;102725.72;;;7.17;100.00
64192;BME280;50497;50.720;-2.084;2023-05-03T04:00:33;102708.00;;;7.11;100.00
64192;BME280;50497;50.720;-2.084;2023-05-03T04:03:00;102716.88;;;7.10;100.00
64192;BME280;50497;50.720;-2.084;2023-05-03T04:05:26;102708.00;;;7.08;100.00
64192;BME280;50497;50.720;-2.084;2023-05-03T04:07:52;102673.44;;;6.88;100.00
64192;BME280;50497;50.720;-2.084;2023-05-03T04:10:18;102711.53;;;7.09;100.00
64192;BME280;50497;50.720;-2.084;2023-05-03T04:12:49;102665.44;;;6.90;100.00
64192;BME280;50497;50.720;-2.084;2023-05-03T04:15:18;102694.72;;;6.99;100.00
64192;BME280;50497;50.720;-2.084;2023-05-03T04:17:46;102700.91;;;7.09;100.00
64192;BME280;50497;50.720;-2.084;2023-05-03T04:20:16;102704.47;;;7.05;100.00
64192;BME280;50497;50.720;-2.084;2023-05-03T04:22:43;102669.88;;;6.77;100.00
64192;BME280;50497;50.720;-2.084;2023-05-03T04:25:10;102700.06;;;6.97;100.00
64192;BME280;50497;50.720;-2.084;2023-05-03T04:27:39;102683.19;;;6.80;100.00
64192;BME280;50497;50.720;-2.084;2023-05-03T04:30:06;102710.66;;;7.00;100.00
64192;BME280;50497;50.720;-2.084;2023-05-03T04:32:31;102677.00;;;6.75;100.00
64192;BME280;50497;50.720;-2.084;2023-05-03T04:35:04;102704.50;;;6.91;100.00
64192;BME280;50497;50.720;-2.084;2023-05-03T04:37:34;102669.88;;;6.75;100.00
64192;BME280;50497;50.720;-2.084;2023-05-03T04:40:00;102707.13;;;6.95;100.00
64192;BME280;50497;50.720;-2.084;2023-05-03T04:42:25;102704.47;;;6.94;100.00
64192;BME280;50497;50.720;-2.084;2023-05-03T04:44:51;102662.81;;;6.74;100.00
64192;BME280;50497;50.720;-2.084;2023-05-03T04:47:17;102703.59;;;6.92;100.00
64192;BME280;50497;50.720;-2.084;2023-05-03T04:49:43;102698.25;;;6.93;100.00
64192;BME280;50497;50.720;-2.084;2023-05-03T04:52:11;102703.59;;;6.93;100.00
64192;BME280;50497;50.720;-2.084;2023-05-03T04:54:36;102690.28;;;6.87;100.00
64192;BME280;50497;50.720;-2.084;2023-05-03T04:57:02;102687.63;;;6.79;100.00
64192;BME280;50497;50.720;-2.084;2023-05-03T04:59:28;102713.34;;;6.90;100.00
64192;BME280;50497;50.720;-2.084;2023-05-03T05:01:53;102695.59;;;6.85;100.00
64192;BME280;50497;50.720;-2.084;2023-05-03T05:04:18;102707.13;;;6.94;100.00
64192;BME280;50497;50.720;-2.084;2023-05-03T05:06:44;102716.00;;;6.94;100.00
64192;BME280;50497;50.720;-2.084;2023-05-03T05:09:23;102711.56;;;6.98;100.00
64192;BME280;50497;50.720;-2.084;2023-05-03T05:11:49;102682.31;;;6.79;100.00
64192;BME280;50497;50.720;-2.084;2023-05-03T05:14:15;102704.47;;;7.03;100.00
64192;BME280;50497;50.720;-2.084;2023-05-03T05:16:41;102706.25;;;7.01;100.00
64192;BME280;50497;50.720;-2.084;2023-05-03T05:19:07;102712.47;;;7.08;100.00
64192;BME280;50497;50.720;-2.084;2023-05-03T05:21:33;102709.78;;;7.12;100.00
64192;BME280;50497;50.720;-2.084;2023-05-03T05:23:59;102716.88;;;7.19;100.00
64192;BME280;50497;50.720;-2.084;2023-05-03T05:26:26;102715.09;;;7.25;100.00
64192;BME280;50497;50.720;-2.084;2023-05-03T05:28:52;102686.72;;;7.14;100.00
64192;BME280;50497;50.720;-2.084;2023-05-03T05:31:17;102713.28;;;7.39;100.00
64192;BME280;50497;50.720;-2.084;2023-05-03T05:33:43;102685.78;;;7.26;100.00
64192;BME280;50497;50.720;-2.084;2023-05-03T05:36:09;102723.03;;;7.46;100.00
64192;BME280;50497;50.720;-2.084;2023-05-03T05:38:34;102715.91;;;7.47;100.00
64192;BME280;50497;50.720;-2.084;2023-05-03T05:41:01;102693.72;;;7.43;100.00
64192;BME280;50497;50.720;-2.084;2023-05-03T05:43:26;102730.03;;;7.73;100.00
64192;BME280;50497;50.720;-2.084;2023-05-03T05:45:52;102695.44;;;7.64;100.00
64192;BME280;50497;50.720;-2.084;2023-05-03T05:48:17;102727.31;;;7.90;100.00
64192;BME280;50497;50.720;-2.084;2023-05-03T05:50:43;102736.19;;;7.95;100.00
64192;BME280;50497;50.720;-2.084;2023-05-03T05:53:08;102738.84;;;8.00;100.00
64192;BME280;50497;50.720;-2.084;2023-05-03T05:55:34;102742.38;;;8.05;100.00
64192;BME280;50497;50.720;-2.084;2023-05-03T05:58:00;102753.88;;;8.12;100.00
64192;BME280;50497;50.720;-2.084;2023-05-03T06:00:26;102760.97;;;8.16;100.00
64192;BME280;50497;50.720;-2.084;2023-05-03T06:02:51;102742.31;;;8.10;100.00
64192;BME280;50497;50.720;-2.084;2023-05-03T06:05:17;102770.66;;;8.31;100.00
64192;BME280;50497;50.720;-2.084;2023-05-03T06:07:43;102778.63;;;8.39;100.00
64192;BME280;50497;50.720;-2.084;2023-05-03T06:10:08;102782.09;;;8.58;100.00
64192;BME280;50497;50.720;-2.084;2023-05-03T06:12:34;102777.63;;;8.58;100.00
64192;BME280;50497;50.720;-2.084;2023-05-03T06:15:01;102805.13;;;8.76;100.00
64192;BME280;50497;50.720;-2.084;2023-05-03T06:17:27;102798.78;;;8.91;100.00
64192;BME280;50497;50.720;-2.084;2023-05-03T06:19:52;102792.63;;;8.78;100.00
64192;BME280;50497;50.720;-2.084;2023-05-03T06:22:18;102813.81;;;9.02;100.00
64192;BME280;50497;50.720;-2.084;2023-05-03T06:24:48;102818.25;;;9.06;100.00
64192;BME280;50497;50.720;-2.084;2023-05-03T06:27:19;102824.44;;;9.12;100.00
64192;BME280;50497;50.720;-2.084;2023-05-03T06:29:49;102835.06;;;9.16;100.00
64192;BME280;50497;50.720;-2.084;2023-05-03T06:32:17;102839.44;;;9.27;100.00
64192;BME280;50497;50.720;-2.084;2023-05-03T06:34:50;102843.03;;;9.24;100.00
64192;BME280;50497;50.720;-2.084;2023-05-03T06:37:21;102839.38;;;9.34;100.00
64192;BME280;50497;50.720;-2.084;2023-05-03T06:39:50;102845.50;;;9.49;100.00
64192;BME280;50497;50.720;-2.084;2023-05-03T06:42:22;102851.63;;;9.61;100.00
64192;BME280;50497;50.720;-2.084;2023-05-03T06:44:48;102865.78;;;9.73;100.00
64192;BME280;50497;50.720;-2.084;2023-05-03T06:47:13;102876.34;;;9.84;100.00
64192;BME280;50497;50.720;-2.084;2023-05-03T06:49:39;102887.78;;;9.98;100.00
64192;BME280;50497;50.720;-2.084;2023-05-03T06:52:05;102884.06;;;10.11;100.00
64192;BME280;50497;50.720;-2.084;2023-05-03T06:54:35;102862.59;;;10.17;100.00
64192;BME280;50497;50.720;-2.084;2023-05-03T06:57:04;102897.81;;;11.20;100.00
64192;BME280;50497;50.720;-2.084;2023-05-03T06:59:31;102919.91;;;12.39;100.00
64192;BME280;50497;50.720;-2.084;2023-05-03T07:01:58;102961.75;;;12.91;100.00
64192;BME280;50497;50.720;-2.084;2023-05-03T07:04:24;103010.56;;;12.70;100.00
64192;BME280;50497;50.720;-2.084;2023-05-03T07:06:54;103057.28;;;12.61;100.00
64192;BME280;50497;50.720;-2.084;2023-05-03T07:09:31;103064.00;;;12.85;100.00
64192;BME280;50497;50.720;-2.084;2023-05-03T07:11:57;103033.69;;;13.99;100.00
64192;BME280;50497;50.720;-2.084;2023-05-03T07:14:22;102959.94;;;14.39;100.00
64192;BME280;50497;50.720;-2.084;2023-05-03T07:16:55;102748.66;;;14.21;100.00
64192;BME280;50497;50.720;-2.084;2023-05-03T07:19:23;102620.66;;;13.82;100.00
64192;BME280;50497;50.720;-2.084;2023-05-03T07:21:48;102658.03;;;14.76;100.00
64192;BME280;50497;50.720;-2.084;2023-05-03T07:24:21;102585.97;;;14.01;100.00
64192;BME280;50497;50.720;-2.084;2023-05-03T07:26:54;102592.75;;;13.86;100.00
64192;BME280;50497;50.720;-2.084;2023-05-03T07:29:22;102481.16;;;14.74;100.00
64192;BME280;50497;50.720;-2.084;2023-05-03T07:31:49;102405.22;;;14.88;100.00
64192;BME280;50497;50.720;-2.084;2023-05-03T07:34:15;102423.16;;;15.79;100.00
64192;BME280;50497;50.720;-2.084;2023-05-03T07:36:41;102383.78;;;15.94;100.00
64192;BME280;50497;50.720;-2.084;2023-05-03T07:39:12;102306.22;;;16.18;100.00
64192;BME280;50497;50.720;-2.084;2023-05-03T07:41:44;102232.88;;;16.46;100.00
64192;BME280;50497;50.720;-2.084;2023-05-03T07:44:12;102136.91;;;16.20;100.00
64192;BME280;50497;50.720;-2.084;2023-05-03T07:46:45;102148.97;;;15.54;100.00
64192;BME280;50497;50.720;-2.084;2023-05-03T07:49:18;102110.28;;;16.49;100.00
64192;BME280;50497;50.720;-2.084;2023-05-03T07:51:49;102093.13;;;16.50;100.00
64192;BME280;50497;50.720;-2.084;2023-05-03T07:54:22;102081.06;;;15.25;100.00
64192;BME280;50497;50.720;-2.084;2023-05-03T07:56:50;102111.88;;;16.35;100.00
64192;BME280;50497;50.720;-2.084;2023-05-03T07:59:16;102066.13;;;16.13;100.00
64192;BME280;50497;50.720;-2.084;2023-05-03T08:01:41;102048.69;;;15.25;100.00
64192;BME280;50497;50.720;-2.084;2023-05-03T08:04:08;102016.09;;;17.27;100.00
64192;BME280;50497;50.720;-2.084;2023-05-03T08:06:34;102147.34;;;17.16;100.00
64192;BME280;50497;50.720;-2.084;2023-05-03T08:08:59;102257.78;;;17.26;100.00
64192;BME280;50497;50.720;-2.084;2023-05-03T08:11:28;102364.44;;;17.74;100.00
64192;BME280;50497;50.720;-2.084;2023-05-03T08:13:54;102448.84;;;17.65;100.00
64192;BME280;50497;50.720;-2.084;2023-05-03T08:16:19;102463.09;;;17.49;100.00
64192;BME280;50497;50.720;-2.084;2023-05-03T08:18:45;102490.75;;;16.99;100.00
64192;BME280;50497;50.720;-2.084;2023-05-03T08:21:11;102530.88;;;17.84;100.00
64192;BME280;50497;50.720;-2.084;2023-05-03T08:23:38;102539.91;;;18.56;100.00
64192;BME280;50497;50.720;-2.084;2023-05-03T08:26:08;102524.72;;;18.87;100.00
64192;BME280;50497;50.720;-2.084;2023-05-03T08:28:35;102560.31;;;18.81;100.00
64192;BME280;50497;50.720;-2.084;2023-05-03T08:31:00;102545.09;;;17.13;100.00
64192;BME280;50497;50.720;-2.084;2023-05-03T08:33:29;102620.78;;;17.53;100.00
64192;BME280;50497;50.720;-2.084;2023-05-03T08:35:55;102525.56;;;19.05;100.00
64192;BME280;50497;50.720;-2.084;2023-05-03T08:38:20;102549.66;;;19.27;100.00
64192;BME280;50497;50.720;-2.084;2023-05-03T08:40:47;102565.06;;;18.23;100.00
64192;BME280;50497;50.720;-2.084;2023-05-03T08:43:18;102563.63;;;18.69;100.00
64192;BME280;50497;50.720;-2.084;2023-05-03T08:45:47;102569.94;;;19.37;100.00
64192;BME280;50497;50.720;-2.084;2023-05-03T08:48:13;102588.97;;;18.33;100.00
64192;BME280;50497;50.720;-2.084;2023-05-03T08:50:43;102606.84;;;17.62;100.00
64192;BME280;50497;50.720;-2.084;2023-05-03T08:53:09;102574.94;;;17.69;100.00
64192;BME280;50497;50.720;-2.084;2023-05-03T08:55:36;102565.72;;;17.92;100.00
64192;BME280;50497;50.720;-2.084;2023-05-03T08:58:05;102576.72;;;18.78;100.00
64192;BME280;50497;50.720;-2.084;2023-05-03T09:00:35;102558.38;;;19.50;100.00
64192;BME280;50497;50.720;-2.084;2023-05-03T09:03:00;102529.59;;;20.70;100.00
64192;BME280;50497;50.720;-2.084;2023-05-03T09:05:30;102509.50;;;19.50;100.00
64192;BME280;50497;50.720;-2.084;2023-05-03T09:08:06;102500.66;;;20.24;98.45
64192;BME280;50497;50.720;-2.084;2023-05-03T09:10:33;102508.44;;;20.30;100.00
64192;BME280;50497;50.720;-2.084;2023-05-03T09:13:01;102500.06;;;19.41;98.01
64192;BME280;50497;50.720;-2.084;2023-05-03T09:15:28;102465.69;;;19.88;100.00
64192;BME280;50497;50.720;-2.084;2023-05-03T09:18:12;102490.66;;;18.81;100.00
64192;BME280;50497;50.720;-2.084;2023-05-03T09:20:40;102469.13;;;19.44;98.05
64192;BME280;50497;50.720;-2.084;2023-05-03T09:23:09;102507.28;;;18.40;100.00
64192;BME280;50497;50.720;-2.084;2023-05-03T09:25:42;102491.19;;;19.85;100.00
64192;BME280;50497;50.720;-2.084;2023-05-03T09:28:13;102483.59;;;20.67;92.49
64192;BME280;50497;50.720;-2.084;2023-05-03T09:30:39;102491.19;;;19.22;96.07
64192;BME280;50497;50.720;-2.084;2023-05-03T09:33:05;102479.34;;;19.70;88.57
64192;BME280;50497;50.720;-2.084;2023-05-03T09:35:32;102498.66;;;19.66;90.25
64192;BME280;50497;50.720;-2.084;2023-05-03T09:37:58;102492.16;;;19.68;96.61
64192;BME280;50497;50.720;-2.084;2023-05-03T09:40:25;102481.59;;;20.10;97.52
64192;BME280;50497;50.720;-2.084;2023-05-03T09:43:10;102479.91;;;19.29;98.84
64192;BME280;50497;50.720;-2.084;2023-05-03T09:45:37;102505.00;;;19.17;100.00
64192;BME280;50497;50.720;-2.084;2023-05-03T09:48:05;102513.91;;;18.52;100.00
64192;BME280;50497;50.720;-2.084;2023-05-03T09:50:35;102507.53;;;18.53;100.00
64192;BME280;50497;50.720;-2.084;2023-05-03T09:53:03;102493.88;;;20.01;100.00
64192;BME280;50497;50.720;-2.084;2023-05-03T09:55:38;102499.53;;;19.82;100.00
64192;BME280;50497;50.720;-2.084;2023-05-03T09:58:06;102501.69;;;20.22;100.00
64192;BME280;50497;50.720;-2.084;2023-05-03T10:00:36;102502.91;;;18.55;100.00
64192;BME280;50497;50.720;-2.084;2023-05-03T10:03:11;102472.19;;;20.75;100.00
64192;BME280;50497;50.720;-2.084;2023-05-03T10:05:48;102495.63;;;21.20;100.00
64192;BME280;50497;50.720;-2.084;2023-05-03T10:08:32;102484.81;;;19.38;100.00
64192;BME280;50497;50.720;-2.084;2023-05-03T10:11:01;102508.63;;;19.65;100.00
64192;BME280;50497;50.720;-2.084;2023-05-03T10:13:29;102481.97;;;18.24;100.00
64192;BME280;50497;50.720;-2.084;2023-05-03T10:16:01;102529.69;;;18.44;100.00
64192;BME280;50497;50.720;-2.084;2023-05-03T10:18:31;102498.69;;;19.00;100.00
64192;BME280;50497;50.720;-2.084;2023-05-03T10:21:05;102503.22;;;20.72;100.00
64192;BME280;50497;50.720;-2.084;2023-05-03T10:24:12;102470.47;;;21.44;98.53
64192;BME280;50497;50.720;-2.084;2023-05-03T10:26:39;102465.94;;;20.44;93.79
64192;BME280;50497;50.720;-2.084;2023-05-03T10:37:31;102441.97;;;21.08;85.81
64192;BME280;50497;50.720;-2.084;2023-05-03T10:40:07;102435.56;;;21.09;93.00
64192;BME280;50497;50.720;-2.084;2023-05-03T10:42:35;102441.31;;;20.76;92.27
64192;BME280;50497;50.720;-2.084;2023-05-03T10:45:01;102428.22;;;20.23;88.03
64192;BME280;50497;50.720;-2.084;2023-05-03T10:47:28;102431.94;;;22.05;94.48
64192;BME280;50497;50.720;-2.084;2023-05-03T10:55:16;102405.72;;;20.93;85.04
64192;BME280;50497;50.720;-2.084;2023-05-03T10:57:47;102422.63;;;20.55;89.90
64192;BME280;50497;50.720;-2.084;2023-05-03T11:05:49;102417.31;;;20.97;94.97
64192;BME280;50497;50.720;-2.084;2023-05-03T11:08:23;102414.97;;;21.05;91.65
64192;BME280;50497;50.720;-2.084;2023-05-03T11:10:57;102405.09;;;20.75;90.71
64192;BME280;50497;50.720;-2.084;2023-05-03T11:13:23;102409.84;;;21.28;81.95
64192;BME280;50497;50.720;-2.084;2023-05-03T11:15:49;102396.75;;;20.05;82.87
64192;BME280;50497;50.720;-2.084;2023-05-03T11:18:15;102394.25;;;21.84;81.04
64192;BME280;50497;50.720;-2.084;2023-05-03T11:20:40;102396.41;;;20.97;79.58
64192;BME280;50497;50.720;-2.084;2023-05-03T11:23:06;102400.19;;;20.95;84.79
64192;BME280;50497;50.720;-2.084;2023-05-03T11:25:32;102388.47;;;21.21;83.71
64192;BME280;50497;50.720;-2.084;2023-05-03T11:28:02;102390.16;;;22.17;81.23
64192;BME280;50497;50.720;-2.084;2023-05-03T11:30:29;102343.19;;;21.20;65.20
64192;BME280;50497;50.720;-2.084;2023-05-03T11:32:58;102366.91;;;21.18;75.23
64192;BME280;50497;50.720;-2.084;2023-05-03T11:35:24;102377.31;;;21.66;71.95
64192;BME280;50497;50.720;-2.084;2023-05-03T11:37:52;102372.44;;;20.61;84.56
64192;BME280;50497;50.720;-2.084;2023-05-03T11:40:18;102372.34;;;22.76;86.12
64192;BME280;50497;50.720;-2.084;2023-05-03T11:42:53;102359.31;;;22.04;84.28
64192;BME280;50497;50.720;-2.084;2023-05-03T11:45:31;102340.75;;;22.60;64.59
64192;BME280;50497;50.720;-2.084;2023-05-03T11:47:57;102350.91;;;22.07;81.38
64192;BME280;50497;50.720;-2.084;2023-05-03T11:50:46;102352.13;;;21.50;83.96
64192;BME280;50497;50.720;-2.084;2023-05-03T11:53:13;102325.06;;;20.07;84.54
64192;BME280;50497;50.720;-2.084;2023-05-03T11:55:47;102342.75;;;20.72;88.55
64192;BME280;50497;50.720;-2.084;2023-05-03T11:58:21;102336.84;;;21.87;74.22
64192;BME280;50497;50.720;-2.084;2023-05-03T12:00:49;102319.91;;;21.29;70.61
64192;BME280;50497;50.720;-2.084;2023-05-03T12:03:26;102317.22;;;22.08;81.92
64192;BME280;50497;50.720;-2.084;2023-05-03T12:05:54;102320.50;;;22.76;84.17
64192;BME280;50497;50.720;-2.084;2023-05-03T12:08:26;102309.81;;;22.10;72.69
64192;BME280;50497;50.720;-2.084;2023-05-03T12:10:52;102283.53;;;22.35;69.28
64192;BME280;50497;50.720;-2.084;2023-05-03T12:13:34;102297.38;;;21.80;62.18
64192;BME280;50497;50.720;-2.084;2023-05-03T12:16:01;102298.53;;;21.23;79.38
64192;BME280;50497;50.720;-2.084;2023-05-03T12:18:51;102290.16;;;22.56;63.53
64192;BME280;50497;50.720;-2.084;2023-05-03T12:21:18;102296.06;;;21.73;83.41
64192;BME280;50497;50.720;-2.084;2023-05-03T12:23:44;102290.28;;;21.52;66.50
64192;BME280;50497;50.720;-2.084;2023-05-03T12:26:11;102279.41;;;20.97;64.97
64192;BME280;50497;50.720;-2.084;2023-05-03T12:28:36;102284.06;;;22.01;72.43
64192;BME280;50497;50.720;-2.084;2023-05-03T12:31:02;102276.31;;;22.08;62.68
64192;BME280;50497;50.720;-2.084;2023-05-03T12:33:28;102283.81;;;21.13;76.65
64192;BME280;50497;50.720;-2.084;2023-05-03T12:35:55;102269.03;;;21.83;72.65
64192;BME280;50497;50.720;-2.084;2023-05-03T12:38:20;102267.84;;;21.48;84.02
64192;BME280;50497;50.720;-2.084;2023-05-03T12:40:46;102262.03;;;22.17;65.75
64192;BME280;50497;50.720;-2.084;2023-05-03T12:43:12;102244.19;;;21.49;65.74
64192;BME280;50497;50.720;-2.084;2023-05-03T12:45:38;102254.44;;;21.84;60.09
64192;BME280;50497;50.720;-2.084;2023-05-03T12:48:03;102225.81;;;21.12;68.52
64192;BME280;50497;50.720;-2.084;2023-05-03T12:50:29;102254.09;;;21.63;77.87
64192;BME280;50497;50.720;-2.084;2023-05-03T12:52:55;102251.50;;;20.81;76.91
64192;BME280;50497;50.720;-2.084;2023-05-03T12:55:20;102245.38;;;20.77;75.38
64192;BME280;50497;50.720;-2.084;2023-05-03T12:57:46;102216.13;;;20.39;89.95
64192;BME280;50497;50.720;-2.084;2023-05-03T13:00:12;102204.59;;;19.64;81.80
64192;BME280;50497;50.720;-2.084;2023-05-03T13:02:38;102246.06;;;19.37;73.90
64192;BME280;50497;50.720;-2.084;2023-05-03T13:05:03;102261.13;;;20.58;100.00
64192;BME280;50497;50.720;-2.084;2023-05-03T13:07:31;102200.28;;;19.90;73.12
64192;BME280;50497;50.720;-2.084;2023-05-03T13:09:56;102238.88;;;19.06;78.96
64192;BME280;50497;50.720;-2.084;2023-05-03T13:12:23;102240.47;;;19.10;89.12
64192;BME280;50497;50.720;-2.084;2023-05-03T13:14:50;102264.78;;;19.42;96.67